SAZB/BHI METAR and TAF weather

Enter ICAO airport designator
Station Type Date Time Source
SAZB METAR 2019/06/16 00:14 UTC NOAA

SAZB 160014Z 11008KT 3000 BR OVC003 07/07 Q1029


Station Type Date Time Source
SAZB Decoded METAR 2019/06/16 00:14 UTC NOAA

Bahia Blanca Aerodrome, Argentina (SAZB) 38-44S 062-10W 83M
Jun 15, 2019 - 08:14 PM EDT / 2019.06.16 0014 UTC
Wind: from the ESE (110 degrees) at 9 MPH (8 KT):0
Visibility: 1 mile(s):0
Sky conditions: overcast
Weather: mist
Temperature: 44 F (7 C)
Dew Point: 44 F (7 C)
Relative Humidity: 100%
Pressure (altimeter): 30.39 in. Hg (1029 hPa)
ob: SAZB 160014Z 11008KT 3000 BR OVC003 07/07 Q1029
cycle: 0

Station Type Date Time Source
SAZB TAF 2019/05/26 00:44 UTC NOAA

TAF SAZB 262300Z 2700/2724 15005KT CAVOK TX17/2718Z TN07/2710Z
BECMG 2703/2705 VRB03KT
BECMG 2706/2708 33005KT 5000 BR SCT005
BECMG 2712/2715 31008KT CAVOK

Example: see airport list